Time;durP1;ratioP1;P1;durP2;ratioP2;P2;SDS_P1;SDS_P2;PMS_P1;PMS_P2;Temp;Humidity;BMP_temperature;BMP_pressure;BME280_temperature;BME280_humidity;BME280_pressure;Samples;Min_cycle;Max_cycle;Signal;HPM_P1;HPM_P2
2021/08/13 00:02:01;;;;;;;8.55;6.60;;;;;;;17.41;74.53;91429.97;5069386;28;20090;-89
2021/08/13 00:04:39;;;;;;;9.40;6.35;;;;;;;17.43;74.33;91425.13;5053951;28;20020;-88
2021/08/13 00:07:20;;;;;;;10.52;6.65;;;;;;;17.50;74.45;91427.09;5054262;28;20085;-88
2021/08/13 00:09:58;;;;;;;11.70;6.55;;;;;;;17.49;74.12;91422.91;5071255;28;20384;-88
2021/08/13 00:12:35;;;;;;;11.88;6.60;;;;;;;17.52;73.90;91422.97;5069632;28;20016;-88
2021/08/13 00:15:09;;;;;;;8.70;6.15;;;;;;;17.44;73.47;91421.38;5072032;28;20029;-87
2021/08/13 00:17:42;;;;;;;11.98;6.47;;;;;;;17.28;74.13;91429.44;5073427;28;20426;-88
2021/08/13 00:20:17;;;;;;;12.27;6.55;;;;;;;17.27;74.76;91429.78;5056517;28;20454;-88
2021/08/13 00:22:52;;;;;;;;;;;;;;;17.43;73.46;91436.41;5057629;28;20036;-88
2021/08/13 00:25:28;;;;;;;13.00;5.95;;;;;;;17.46;73.02;91436.84;5070745;28;20395;-88
2021/08/13 00:28:06;;;;;;;11.55;6.10;;;;;;;17.42;69.15;91436.75;5052985;28;20033;-88
2021/08/13 00:30:46;;;;;;;10.70;4.57;;;;;;;17.67;68.83;91435.22;5036837;28;20040;-88
2021/08/13 00:33:28;;;;;;;10.68;4.82;;;;;;;17.72;67.53;91438.66;5053083;28;20025;-88
2021/08/13 00:35:55;;;;;;;8.35;3.80;;;;;;;18.31;62.89;91429.13;5053010;28;20485;-88
2021/08/13 00:38:30;;;;;;;8.30;3.97;;;;;;;18.17;64.57;91429.00;5020134;28;20051;-88
2021/08/13 00:41:08;;;;;;;11.38;4.43;;;;;;;18.04;65.64;91437.16;5052268;28;20016;-88
2021/08/13 00:43:42;;;;;;;9.98;4.15;;;;;;;17.89;66.10;91424.94;5052914;28;20025;-88
2021/08/13 00:46:16;;;;;;;;;;;;;;;17.90;66.32;91427.22;5053178;28;20029;-87
2021/08/13 00:48:51;;;;;;;12.15;4.95;;;;;;;17.68;67.67;91423.53;5069059;28;20007;-88
2021/08/13 00:51:28;;;;;;;10.00;4.40;;;;;;;17.68;68.21;91426.19;5055060;28;20020;-89
2021/08/13 00:53:54;;;;;;;10.50;5.00;;;;;;;17.59;67.61;91417.78;5056809;28;20016;-88
2021/08/13 00:56:32;;;;;;;11.82;4.18;;;;;;;17.56;67.08;91417.75;5072515;28;20046;-88
2021/08/13 00:59:06;;;;;;;11.57;4.45;;;;;;;17.49;67.80;91418.44;5072987;28;20611;-89
2021/08/13 01:01:41;;;;;;;10.02;4.22;;;;;;;17.44;68.14;91426.63;5072084;28;20449;-88
2021/08/13 01:04:18;;;;;;;10.07;3.97;;;;;;;17.49;67.78;91423.69;5072746;28;20481;-88
2021/08/13 01:06:55;;;;;;;7.05;3.65;;;;;;;17.50;67.09;91421.81;5072661;28;20025;-88
2021/08/13 01:09:33;;;;;;;11.93;4.50;;;;;;;17.43;66.95;91419.84;5056620;28;20271;-88
2021/08/13 01:12:33;;;;;;;10.50;4.03;;;;;;;17.34;67.43;91419.34;5039307;28;20025;-88
2021/08/13 01:15:12;;;;;;;9.25;3.80;;;;;;;17.35;67.15;91419.00;5072405;28;20422;-89
2021/08/13 01:17:50;;;;;;;9.35;3.80;;;;;;;17.30;67.59;91415.91;5072174;28;20071;-88
2021/08/13 01:20:56;;;;;;;11.98;4.22;;;;;;;17.16;67.71;91416.47;5071670;28;20638;-87
2021/08/13 01:24:13;;;;;;;8.60;4.03;;;;;;;17.13;68.10;91417.94;5073459;28;20029;-88
2021/08/13 01:26:58;;;;;;;8.13;3.85;;;;;;;17.03;69.14;91426.47;5058031;28;20029;-88
2021/08/13 01:29:52;;;;;;;9.23;3.70;;;;;;;16.99;68.80;91438.06;5035170;28;20029;-88
2021/08/13 01:32:51;;;;;;;10.43;3.75;;;;;;;16.98;68.23;91429.41;5052990;28;20035;-88
2021/08/13 01:35:35;;;;;;;9.43;3.50;;;;;;;16.89;67.83;91426.25;5057863;28;20005;-89
2021/08/13 01:38:27;;;;;;;14.18;3.80;;;;;;;16.78;68.73;91422.69;5066530;28;20029;-88
2021/08/13 01:41:07;;;;;;;12.88;3.78;;;;;;;16.68;69.80;91431.94;5020055;28;20400;-88
2021/08/13 01:43:42;;;;;;;10.27;3.45;;;;;;;16.69;68.52;91426.31;5035889;28;20033;-88
2021/08/13 01:46:19;;;;;;;9.90;3.92;;;;;;;16.77;67.53;91431.72;5035675;28;20164;-88
2021/08/13 01:49:02;;;;;;;11.38;3.47;;;;;;;16.72;68.10;91425.63;5035945;28;20507;-88
2021/08/13 01:51:40;;;;;;;10.85;3.28;;;;;;;16.76;67.74;91428.34;5051183;28;20020;-88
2021/08/13 01:54:18;;;;;;;7.38;3.50;;;;;;;16.72;68.02;91430.88;5051464;28;20503;-88
2021/08/13 01:56:51;;;;;;;11.48;3.30;;;;;;;16.94;66.55;91433.84;5019267;28;20029;-88
2021/08/13 01:59:33;;;;;;;9.30;3.33;;;;;;;17.11;66.16;91427.34;5018846;28;20029;-88
2021/08/13 02:02:10;;;;;;;7.85;3.90;;;;;;;17.27;65.19;91437.69;5019216;28;20029;-87
2021/08/13 02:04:42;;;;;;;11.32;3.83;;;;;;;17.16;66.35;91432.28;5017764;28;20032;-88
2021/08/13 02:07:20;;;;;;;10.07;3.30;;;;;;;17.11;67.46;91436.00;5018122;28;20032;-87
2021/08/13 02:09:55;;;;;;;8.23;3.67;;;;;;;16.82;68.57;91437.47;5035000;28;20021;-88
2021/08/13 02:12:32;;;;;;;11.80;3.75;;;;;;;16.66;68.75;91434.91;5051007;28;20020;-88
2021/08/13 02:15:01;;;;;;;8.18;3.53;;;;;;;16.79;66.93;91435.53;5018987;28;20127;-88
2021/08/13 02:17:33;;;;;;;8.82;3.20;;;;;;;16.71;68.65;91436.47;5034668;28;20083;-88
2021/08/13 02:20:15;;;;;;;9.40;3.67;;;;;;;16.54;69.74;91440.38;5018159;28;20435;-88
2021/08/13 02:22:55;;;;;;;10.27;4.10;;;;;;;16.33;70.54;91429.50;5034485;28;20032;-88
2021/08/13 02:25:31;;;;;;;10.98;3.78;;;;;;;16.20;71.37;91432.28;5053463;28;20029;-88
2021/08/13 02:28:09;;;;;;;8.95;4.28;;;;;;;16.00;72.06;91422.91;5055057;28;20050;-88
2021/08/13 02:30:50;;;;;;;9.43;3.35;;;;;;;16.07;71.09;91428.28;5055150;28;20085;-88
2021/08/13 02:33:27;;;;;;;7.68;3.35;;;;;;;16.01;71.72;91429.69;5070454;28;20031;-87
2021/08/13 02:36:01;;;;;;;7.47;3.45;;;;;;;15.91;72.43;91419.75;5055066;28;20025;-88
2021/08/13 02:38:37;;;;;;;8.20;3.30;;;;;;;15.86;72.47;91425.28;5054561;28;20056;-88
2021/08/13 02:41:16;;;;;;;9.20;3.35;;;;;;;15.88;71.89;91426.44;5054637;28;20036;-88
2021/08/13 02:43:55;;;;;;;7.53;3.53;;;;;;;15.74;72.54;91428.81;5070583;28;20029;-88
2021/08/13 02:46:40;;;;;;;7.82;3.75;;;;;;;15.73;72.43;91425.44;5070614;28;20029;-88
2021/08/13 02:49:20;;;;;;;7.78;3.60;;;;;;;15.80;72.34;91430.06;5054875;28;20484;-88
2021/08/13 02:51:55;;;;;;;15.40;4.45;;;;;;;15.65;72.86;91431.59;5054787;28;20024;-90
2021/08/13 02:54:33;;;;;;;10.55;3.88;;;;;;;15.62;73.06;91427.06;5054728;28;20020;-88
2021/08/13 02:57:09;;;;;;;8.48;3.53;;;;;;;15.67;72.89;91437.31;5081176;28;20023;-89
2021/08/13 02:59:47;;;;;;;7.95;3.42;;;;;;;15.75;72.75;91430.31;5093879;28;20008;-88
2021/08/13 03:02:22;;;;;;;6.65;3.50;;;;;;;15.64;73.03;91426.72;5054285;28;20043;-88
2021/08/13 03:04:59;;;;;;;9.43;3.95;;;;;;;15.74;72.96;91421.69;5038387;28;20443;-88
2021/08/13 03:07:33;;;;;;;6.57;3.67;;;;;;;15.83;71.55;91428.59;5054323;28;20030;-88
2021/08/13 03:10:10;;;;;;;9.30;3.47;;;;;;;15.63;72.55;91425.19;5069740;28;20021;-88
2021/08/13 03:12:50;;;;;;;11.77;4.18;;;;;;;15.66;72.67;91430.53;5038272;28;20028;-88
2021/08/13 03:15:26;;;;;;;7.78;3.55;;;;;;;15.56;73.15;91425.81;5054686;28;20446;-88
2021/08/13 03:18:04;;;;;;;7.45;3.38;;;;;;;15.73;71.56;91409.66;5070068;28;20028;-88
2021/08/13 03:20:39;;;;;;;8.25;3.65;;;;;;;15.54;72.98;91420.13;5053817;28;20032;-89
2021/08/13 03:23:19;;;;;;;10.00;3.67;;;;;;;15.40;73.92;91419.84;5070359;28;20086;-88
2021/08/13 03:25:56;;;;;;;9.70;3.83;;;;;;;15.35;73.79;91410.38;5031622;28;20043;-88
2021/08/13 03:28:32;;;;;;;9.85;4.03;;;;;;;15.20;74.40;91405.97;5017741;28;20489;-88
2021/08/13 03:31:08;;;;;;;9.85;3.45;;;;;;;15.28;73.26;91411.00;5033568;28;20033;-88
2021/08/13 03:33:46;;;;;;;9.45;3.63;;;;;;;15.37;72.83;91413.44;5049968;28;20088;-88
2021/08/13 03:36:19;;;;;;;8.45;3.50;;;;;;;15.49;72.60;91415.16;5034096;28;20025;-88
2021/08/13 03:39:01;;;;;;;11.32;3.85;;;;;;;15.38;73.46;91407.09;5050974;28;20025;-88
2021/08/13 03:41:36;;;;;;;9.32;3.10;;;;;;;15.36;73.30;91408.53;5049476;28;20497;-87
2021/08/13 03:44:13;;;;;;;6.90;2.80;;;;;;;15.57;71.62;91411.56;5033880;28;20488;-88
2021/08/13 03:46:48;;;;;;;11.80;3.08;;;;;;;15.64;71.81;91414.31;5034039;28;20496;-87
2021/08/13 03:49:24;;;;;;;9.02;3.10;;;;;;;15.71;71.34;91414.50;5020092;28;20028;-88
2021/08/13 03:52:04;;;;;;;6.93;3.13;;;;;;;15.67;72.24;91416.28;5057743;28;20023;-88
2021/08/13 03:54:41;;;;;;;8.75;3.22;;;;;;;15.74;71.71;91418.31;5073597;28;20070;-88
2021/08/13 03:57:16;;;;;;;8.20;3.10;;;;;;;15.67;72.08;91416.28;5073769;28;20206;-88
2021/08/13 03:59:52;;;;;;;10.38;3.03;;;;;;;15.63;72.14;91417.31;5073292;28;20032;-88
2021/08/13 04:02:31;;;;;;;12.07;3.30;;;;;;;15.88;71.05;91420.44;5057166;28;20439;-88
2021/08/13 04:05:04;;;;;;;9.57;3.00;;;;;;;16.04;71.01;91425.59;5073530;28;20021;-88
2021/08/13 04:07:40;;;;;;;9.15;3.40;;;;;;;16.14;71.34;91433.66;5057288;28;20023;-88
2021/08/13 04:10:15;;;;;;;9.15;3.05;;;;;;;16.37;70.46;91446.09;5057371;28;20031;-88
2021/08/13 04:12:53;;;;;;;;;;;;;;;16.66;69.93;91442.81;5058168;28;20029;-88
2021/08/13 04:15:29;;;;;;;9.15;3.05;;;;;;;17.03;68.64;91439.66;5073104;28;20296;-87
2021/08/13 04:18:05;;;;;;;7.80;3.00;;;;;;;17.14;68.87;91445.81;5057703;28;20096;-88
2021/08/13 04:23:10;;;;;;;9.18;3.47;;;;;;;17.43;67.96;91446.19;5013954;28;20387;-85
2021/08/13 04:25:52;;;;;;;12.07;3.20;;;;;;;17.50;67.69;91453.44;5014195;28;20022;-85
2021/08/13 04:28:27;;;;;;;8.30;3.65;;;;;;;17.46;67.80;91453.41;5015124;28;20088;-85
2021/08/13 04:31:06;;;;;;;9.18;3.67;;;;;;;17.38;68.63;91457.03;4998218;28;20041;-85
2021/08/13 04:33:45;;;;;;;11.32;3.80;;;;;;;17.27;69.31;91449.00;5014945;28;20025;-85
2021/08/13 04:36:27;;;;;;;9.75;3.47;;;;;;;17.12;69.59;91452.53;5013800;28;20105;-87
2021/08/13 04:39:02;;;;;;;9.60;3.38;;;;;;;17.10;69.32;91460.81;4998611;28;20052;-85
2021/08/13 04:41:38;;;;;;;9.45;3.45;;;;;;;17.08;69.84;91457.00;5029727;28;20037;-85
2021/08/13 04:44:17;;;;;;;10.77;3.20;;;;;;;17.13;70.07;91461.97;5015215;28;20030;-85
2021/08/13 04:47:02;;;;;;;9.02;3.60;;;;;;;17.23;69.49;91466.63;5013558;28;20033;-86
2021/08/13 04:49:36;;;;;;;11.85;3.40;;;;;;;17.11;70.46;91472.09;5013627;28;20038;-85
2021/08/13 04:52:18;;;;;;;10.10;3.60;;;;;;;17.06;70.25;91464.47;5013920;28;20022;-85
2021/08/13 04:54:58;;;;;;;9.23;3.35;;;;;;;17.07;70.44;91472.03;5014680;28;20029;-85
2021/08/13 04:57:27;;;;;;;11.57;3.47;;;;;;;17.09;71.04;91475.06;5029808;28;20061;-86
2021/08/13 05:00:04;;;;;;;10.10;4.03;;;;;;;17.07;71.83;91473.94;5014078;28;20022;-85
2021/08/13 05:02:42;;;;;;;12.73;3.90;;;;;;;17.03;71.94;91473.88;5012799;28;20026;-85
2021/08/13 05:05:19;;;;;;;16.50;4.22;;;;;;;17.00;72.42;91471.94;5013828;28;20061;-87
2021/08/13 05:07:58;;;;;;;15.68;4.15;;;;;;;17.04;72.65;91472.75;5013735;28;20041;-85
2021/08/13 05:10:39;;;;;;;11.52;4.03;;;;;;;17.07;73.28;91482.59;5013255;28;20504;-86
2021/08/13 05:13:16;;;;;;;13.30;4.10;;;;;;;17.27;72.73;91477.97;5014526;28;20481;-84
2021/08/13 05:16:00;;;;;;;13.25;4.22;;;;;;;17.36;72.52;91483.00;5013639;28;20022;-85
2021/08/13 05:18:35;;;;;;;15.80;4.65;;;;;;;17.62;71.56;91490.09;5033774;28;20034;-87
2021/08/13 05:21:07;;;;;;;10.40;4.13;;;;;;;17.69;71.75;91483.03;5031028;28;20026;-85
2021/08/13 05:23:43;;;;;;;15.95;4.07;;;;;;;17.69;72.25;91474.38;4995812;28;20038;-85
2021/08/13 05:26:18;;;;;;;9.73;4.00;;;;;;;17.75;71.96;91477.47;5019110;28;20030;-84
2021/08/13 05:28:57;;;;;;;11.43;3.95;;;;;;;17.85;72.34;91482.16;5012694;28;20026;-85
2021/08/13 05:31:29;;;;;;;14.18;4.15;;;;;;;18.03;71.79;91477.06;5013809;28;20017;-85
2021/08/13 05:34:16;;;;;;;10.95;4.25;;;;;;;17.94;72.47;91472.06;5013759;28;20104;-85
2021/08/13 05:36:52;;;;;;;13.55;3.97;;;;;;;17.88;73.11;91478.78;5012773;28;20426;-85
2021/08/13 05:39:30;;;;;;;12.05;4.78;;;;;;;17.89;74.37;91475.78;4997355;28;20022;-85
2021/08/13 05:42:09;;;;;;;10.15;4.13;;;;;;;17.90;73.81;91484.47;5012105;28;20026;-85
2021/08/13 05:44:42;;;;;;;15.00;4.40;;;;;;;18.06;72.82;91476.38;5013735;28;20461;-85
2021/08/13 05:47:18;;;;;;;8.05;4.30;;;;;;;18.10;73.25;91487.72;5029129;28;20475;-87
2021/08/13 05:49:58;;;;;;;14.55;4.65;;;;;;;18.10;72.99;91493.75;5044064;28;20045;-85
2021/08/13 05:52:35;;;;;;;13.57;4.70;;;;;;;18.23;72.91;91488.19;5012416;28;20025;-85
2021/08/13 05:55:11;;;;;;;13.48;4.65;;;;;;;18.33;73.59;91484.91;4996145;28;20026;-85
2021/08/13 05:57:45;;;;;;;15.80;4.53;;;;;;;18.58;74.26;91501.75;5012184;28;20104;-85
2021/08/13 06:00:18;;;;;;;12.97;4.87;;;;;;;18.68;73.95;91499.59;4979876;28;20032;-85
2021/08/13 06:03:05;;;;;;;14.75;4.93;;;;;;;18.82;73.08;91494.47;5013287;28;20267;-85
2021/08/13 06:05:41;;;;;;;13.32;5.28;;;;;;;18.96;73.48;91484.03;5044573;28;20084;-85
2021/08/13 06:08:21;;;;;;;11.88;4.32;;;;;;;19.02;72.79;91500.31;5012065;28;20036;-85
2021/08/13 06:10:56;;;;;;;12.45;5.30;;;;;;;19.16;72.75;91497.00;5044329;28;20022;-85
2021/08/13 06:13:36;;;;;;;9.90;4.45;;;;;;;19.23;70.29;91484.59;4995389;28;20025;-85
2021/08/13 06:16:14;;;;;;;10.82;4.43;;;;;;;19.38;71.12;91487.34;5011828;28;20053;-85
2021/08/13 06:18:46;;;;;;;14.05;4.32;;;;;;;19.43;68.46;91487.00;5011908;28;20026;-87
2021/08/13 06:21:25;;;;;;;10.20;4.13;;;;;;;19.59;65.25;91490.13;5011376;28;20029;-85
2021/08/13 06:24:03;;;;;;;8.02;3.13;;;;;;;19.72;62.38;91482.66;5011768;28;20065;-85
2021/08/13 06:26:40;;;;;;;11.73;3.03;;;;;;;19.88;61.95;91485.00;5011641;28;20037;-85
2021/08/13 06:29:15;;;;;;;7.68;3.00;;;;;;;19.79;61.11;91490.63;5011757;28;20026;-85
2021/08/13 06:32:00;;;;;;;12.98;2.88;;;;;;;19.89;60.00;91484.63;5012390;28;20478;-84
2021/08/13 06:34:38;;;;;;;11.20;2.95;;;;;;;19.87;59.85;91494.06;5011990;28;20474;-84
2021/08/13 06:37:13;;;;;;;10.57;2.88;;;;;;;19.88;58.09;91493.69;5012903;28;20021;-84
2021/08/13 06:39:55;;;;;;;11.15;2.60;;;;;;;19.92;58.32;91499.75;5011015;28;20452;-85
2021/08/13 06:42:33;;;;;;;9.85;2.60;;;;;;;19.98;58.46;91503.56;5011741;28;20490;-85
2021/08/13 06:45:08;;;;;;;10.77;2.55;;;;;;;20.05;59.07;91505.47;5028138;28;20030;-85
2021/08/13 06:47:55;;;;;;;7.35;2.40;;;;;;;20.21;57.72;91495.34;5028886;28;20097;-85
2021/08/13 06:50:37;;;;;;;11.80;2.70;;;;;;;20.31;56.78;91501.78;5030874;28;20021;-85
2021/08/13 06:53:09;;;;;;;11.13;3.30;;;;;;;20.37;56.78;91502.19;5023372;28;20022;-84
2021/08/13 06:55:48;;;;;;;8.48;2.55;;;;;;;20.51;56.52;91500.38;5019610;28;20421;-85
2021/08/13 06:58:24;;;;;;;10.77;2.70;;;;;;;20.56;54.90;91507.19;5051588;28;20486;-85
2021/08/13 07:01:02;;;;;;;7.63;2.30;;;;;;;20.59;55.60;91508.31;5019521;28;20029;-85
2021/08/13 07:03:37;;;;;;;10.70;2.60;;;;;;;20.70;55.30;91509.09;5018654;28;20040;-85
2021/08/13 07:06:11;;;;;;;7.88;2.50;;;;;;;20.76;55.57;91518.94;5019794;28;20558;-84
2021/08/13 07:08:53;;;;;;;6.13;2.20;;;;;;;20.69;56.65;91512.88;5018681;28;20026;-85
2021/08/13 07:11:34;;;;;;;13.05;2.58;;;;;;;20.70;55.00;91519.69;5019634;28;20541;-85
2021/08/13 07:14:15;;;;;;;7.80;2.20;;;;;;;20.72;54.91;91514.78;5018643;28;20083;-85
2021/08/13 07:16:51;;;;;;;12.40;2.38;;;;;;;20.77;54.79;91509.88;5052034;28;20033;-84
2021/08/13 07:19:25;;;;;;;10.25;2.67;;;;;;;20.77;54.09;91509.88;5019152;28;20026;-85
2021/08/13 07:22:04;;;;;;;11.57;2.60;;;;;;;20.74;54.97;91518.59;5021257;28;20390;-85
2021/08/13 07:24:40;;;;;;;8.98;2.47;;;;;;;20.65;57.32;91518.19;5036605;28;20034;-85
2021/08/13 07:27:18;;;;;;;14.63;2.80;;;;;;;20.59;56.38;91513.63;5020549;28;20025;-85
2021/08/13 07:30:01;;;;;;;10.40;2.03;;;;;;;20.74;55.15;91520.44;5022299;28;20037;-83
2021/08/13 07:32:34;;;;;;;10.80;2.57;;;;;;;20.63;56.16;91525.72;5005009;28;20026;-86
2021/08/13 07:35:14;;;;;;;11.63;2.60;;;;;;;20.69;55.82;91532.19;5020977;28;20021;-85
2021/08/13 07:37:46;;;;;;;8.52;2.25;;;;;;;20.89;55.26;91532.59;5020976;28;20026;-85
2021/08/13 07:40:24;;;;;;;8.73;2.10;;;;;;;21.07;54.92;91526.56;5031769;28;20018;-85
2021/08/13 07:43:01;;;;;;;10.88;2.10;;;;;;;21.09;55.90;91535.63;5003277;28;20026;-85
2021/08/13 07:45:45;;;;;;;11.60;2.45;;;;;;;21.01;53.71;91534.88;5020750;28;20021;-86
2021/08/13 07:48:26;;;;;;;9.20;2.30;;;;;;;21.09;55.08;91529.59;5005260;28;20053;-86
2021/08/13 07:51:07;;;;;;;7.00;2.47;;;;;;;21.13;56.81;91538.28;5019930;28;20018;-85
2021/08/13 07:53:53;;;;;;;8.25;2.22;;;;;;;21.16;55.63;91529.59;5020462;28;20030;-86
2021/08/13 07:56:28;;;;;;;8.35;2.88;;;;;;;21.18;56.29;91535.28;5019420;28;20025;-86
2021/08/13 07:59:08;;;;;;;9.88;3.20;;;;;;;21.15;55.90;91536.78;5020478;28;20057;-85
2021/08/13 08:01:42;;;;;;;13.55;2.95;;;;;;;21.28;55.20;91542.47;5019107;28;20025;-85
2021/08/13 08:04:22;;;;;;;8.25;2.63;;;;;;;21.53;55.18;91545.16;5017953;28;20030;-85
2021/08/13 08:06:56;;;;;;;10.57;2.97;;;;;;;21.59;56.18;91550.81;5005697;28;20026;-85
2021/08/13 08:09:35;;;;;;;5.07;2.25;;;;;;;21.84;56.27;91537.53;5021030;28;20442;-85
2021/08/13 08:12:12;;;;;;;8.45;3.22;;;;;;;22.10;56.15;91546.94;5038382;28;20089;-85
2021/08/13 08:14:48;;;;;;;14.55;3.78;;;;;;;22.27;56.92;91550.72;5022690;28;20022;-86
2021/08/13 08:17:21;;;;;;;12.25;4.15;;;;;;;22.31;55.40;91548.81;5036112;28;20152;-85
2021/08/13 08:19:59;;;;;;;7.82;3.75;;;;;;;22.41;56.23;91554.06;5020475;28;20026;-85
2021/08/13 08:22:33;;;;;;;9.45;2.90;;;;;;;22.32;55.00;91548.41;5021034;28;20033;-85
2021/08/13 08:25:11;;;;;;;9.38;2.83;;;;;;;22.24;56.10;91554.13;5004666;28;20030;-85
2021/08/13 08:27:52;;;;;;;10.15;3.30;;;;;;;22.06;56.50;91567.44;5012465;28;20018;-87
2021/08/13 08:30:31;;;;;;;13.55;3.88;;;;;;;22.06;56.28;91570.09;5014479;28;20029;-85
2021/08/13 08:33:11;;;;;;;14.30;4.05;;;;;;;22.16;56.30;91585.25;5016512;28;20494;-85
2021/08/13 08:35:49;;;;;;;13.18;4.20;;;;;;;22.23;56.16;91581.81;5000723;28;20029;-85
2021/08/13 08:38:28;;;;;;;16.15;3.72;;;;;;;22.33;56.15;91584.44;5020191;28;20060;-85
2021/08/13 08:41:11;;;;;;;12.57;4.43;;;;;;;22.52;56.72;91593.09;5017331;28;20026;-85
2021/08/13 08:43:50;;;;;;;18.52;4.65;;;;;;;22.57;57.17;91590.78;5029510;28;20560;-85
2021/08/13 08:46:26;;;;;;;12.85;4.25;;;;;;;22.66;57.79;91591.16;4979041;28;20034;-85
2021/08/13 08:49:06;;;;;;;13.05;5.10;;;;;;;22.76;57.59;91592.25;5011167;28;20022;-86
2021/08/13 08:51:42;;;;;;;16.88;4.93;;;;;;;22.96;56.90;91597.09;5026120;28;20048;-86
2021/08/13 08:54:16;;;;;;;11.68;4.68;;;;;;;22.93;55.20;91597.88;4979899;28;20022;-85
2021/08/13 08:56:50;;;;;;;14.63;5.30;;;;;;;23.11;57.74;91590.59;4995235;28;20387;-85
2021/08/13 08:59:23;;;;;;;15.90;5.47;;;;;;;23.03;56.26;91595.16;4980292;28;20031;-85
2021/08/13 09:02:03;;;;;;;15.60;5.07;;;;;;;22.95;58.70;91582.31;4995425;28;20037;-85
2021/08/13 09:04:42;;;;;;;15.90;5.80;;;;;;;22.85;57.96;91586.50;4995125;28;20109;-85
2021/08/13 09:07:24;;;;;;;16.80;4.90;;;;;;;22.78;57.14;91595.25;4994915;28;20026;-86
2021/08/13 09:09:56;;;;;;;12.65;5.32;;;;;;;22.84;56.39;91599.03;4994455;28;20109;-85
2021/08/13 09:12:35;;;;;;;15.27;4.88;;;;;;;22.93;57.18;91605.84;4994649;28;20033;-86
2021/08/13 09:15:29;;;;;;;17.15;4.97;;;;;;;23.00;56.13;91600.50;5011736;28;20089;-85
2021/08/13 09:18:21;;;;;;;19.15;6.35;;;;;;;23.23;58.18;91592.78;4994424;28;20023;-85
2021/08/13 09:21:01;;;;;;;16.60;5.40;;;;;;;23.31;56.00;91599.53;4994075;28;20022;-85
2021/08/13 09:23:53;;;;;;;15.18;5.63;;;;;;;23.38;58.14;91602.16;4996966;28;20109;-85
2021/08/13 09:26:31;;;;;;;14.45;5.30;;;;;;;23.48;56.94;91597.16;5005870;28;20120;-85
2021/08/13 09:29:07;;;;;;;16.67;5.97;;;;;;;23.22;55.81;91585.19;5013571;28;20026;-85
2021/08/13 09:31:44;;;;;;;14.82;6.07;;;;;;;23.13;56.35;91593.59;5014972;28;20478;-85
2021/08/13 09:34:27;;;;;;;17.05;5.78;;;;;;;23.30;58.16;91594.63;4997625;28;20026;-85
2021/08/13 09:37:05;;;;;;;16.83;6.78;;;;;;;23.65;56.73;91595.53;5030651;28;20026;-85
2021/08/13 09:39:40;;;;;;;14.55;5.25;;;;;;;23.81;57.46;91587.81;5019087;28;20057;-85
2021/08/13 09:42:16;;;;;;;16.58;6.35;;;;;;;23.80;55.30;91595.03;5015100;28;20033;-85
2021/08/13 09:44:48;;;;;;;12.88;5.63;;;;;;;23.90;56.31;91592.69;5028994;28;20573;-87
2021/08/13 09:47:26;;;;;;;12.93;5.63;;;;;;;24.01;56.04;91591.41;5013542;28;20030;-85
2021/08/13 09:50:02;;;;;;;15.20;6.35;;;;;;;24.05;56.46;91592.13;4994477;28;20053;-86
2021/08/13 09:52:39;;;;;;;13.70;6.07;;;;;;;23.92;55.13;91587.69;5009504;28;20070;-85
2021/08/13 09:55:23;;;;;;;18.48;6.65;;;;;;;23.82;55.54;91595.41;4992736;28;20030;-85
2021/08/13 09:58:02;;;;;;;15.23;6.40;;;;;;;24.03;57.84;91602.44;4992734;28;20105;-85
2021/08/13 10:00:43;;;;;;;14.00;6.05;;;;;;;24.09;55.13;91603.50;4992045;28;20070;-84
2021/08/13 10:03:24;;;;;;;16.00;6.40;;;;;;;24.00;55.78;91595.25;5009305;28;20026;-85
2021/08/13 10:06:09;;;;;;;15.02;6.38;;;;;;;24.14;56.06;91591.69;4993190;28;20062;-84
2021/08/13 10:08:47;;;;;;;17.48;6.90;;;;;;;24.19;56.02;91601.91;5008808;28;20030;-85
2021/08/13 10:11:27;;;;;;;17.67;6.35;;;;;;;24.29;55.26;91609.03;4992434;28;20031;-85
2021/08/13 10:14:04;;;;;;;18.73;6.50;;;;;;;24.47;54.36;91594.78;5008928;28;20026;-85
2021/08/13 10:16:41;;;;;;;18.70;6.00;;;;;;;24.52;54.87;91597.00;4992340;28;20112;-85
2021/08/13 10:19:17;;;;;;;15.80;6.45;;;;;;;24.62;53.88;91595.38;4992345;28;20073;-85
2021/08/13 10:21:55;;;;;;;20.23;6.22;;;;;;;24.63;52.58;91600.34;5072127;22;20045;-87
2021/08/13 10:24:31;;;;;;;14.80;6.25;;;;;;;24.45;53.91;91597.88;5058110;28;20029;-87
2021/08/13 10:27:08;;;;;;;13.75;6.13;;;;;;;24.59;53.50;91596.19;5058010;28;20400;-87
2021/08/13 10:29:33;;;;;;;15.80;7.13;;;;;;;24.54;54.95;91600.03;5041946;28;20025;-87
2021/08/13 10:32:14;;;;;;;26.63;9.52;;;;;;;24.68;54.85;91599.88;5036268;28;20032;-85
2021/08/13 10:34:54;;;;;;;20.63;7.13;;;;;;;24.89;52.25;91600.78;5035075;28;20017;-85
2021/08/13 10:37:25;;;;;;;14.38;6.03;;;;;;;24.46;52.92;91593.28;5047070;28;20079;-85
2021/08/13 10:40:04;;;;;;;14.20;6.00;;;;;;;24.46;52.21;91609.28;5031135;28;20029;-85
2021/08/13 10:42:38;;;;;;;16.55;6.32;;;;;;;24.40;53.44;91595.63;5030951;28;20025;-85
2021/08/13 10:45:30;;;;;;;13.57;5.97;;;;;;;24.39;52.19;91593.34;5031854;28;20029;-86
2021/08/13 10:48:20;;;;;;;16.00;6.20;;;;;;;24.34;56.24;91599.84;5034897;28;20029;-85
2021/08/13 10:50:54;;;;;;;18.02;6.55;;;;;;;24.49;54.01;91587.94;5033282;28;20017;-86
2021/08/13 10:53:40;;;;;;;15.50;6.20;;;;;;;24.66;53.98;91602.19;5035776;28;20029;-86
2021/08/13 10:56:18;;;;;;;16.05;6.07;;;;;;;24.50;51.66;91594.00;5037855;28;20029;-86
2021/08/13 10:58:53;;;;;;;19.70;5.82;;;;;;;24.77;52.72;91600.16;5042692;28;20069;-87
2021/08/13 11:01:34;;;;;;;18.55;6.30;;;;;;;24.91;51.97;91603.78;5048767;28;20038;-86
2021/08/13 11:04:10;;;;;;;13.05;5.93;;;;;;;24.83;52.79;91602.38;5040130;28;20022;-86
2021/08/13 11:06:47;;;;;;;15.13;6.10;;;;;;;24.93;52.41;91594.25;5048289;28;20025;-85
2021/08/13 11:09:35;;;;;;;14.70;6.35;;;;;;;25.12;51.47;91595.53;5047759;28;20051;-85
2021/08/13 11:12:12;;;;;;;16.33;6.13;;;;;;;24.88;50.73;91592.03;5047306;28;20017;-85
2021/08/13 11:15:01;;;;;;;18.02;6.32;;;;;;;24.99;51.54;91589.22;5031737;28;20049;-84
2021/08/13 11:17:42;;;;;;;15.13;5.90;;;;;;;25.26;52.60;91595.34;5047188;28;20022;-85
2021/08/13 11:20:20;;;;;;;11.95;5.60;;;;;;;25.31;49.46;91606.75;5032788;28;20049;-85
2021/08/13 11:23:02;;;;;;;13.63;6.15;;;;;;;25.42;51.57;91596.66;5034471;28;20508;-84
2021/08/13 11:25:54;;;;;;;15.48;5.60;;;;;;;25.57;50.06;91603.28;5032186;28;20120;-85
2021/08/13 11:28:34;;;;;;;15.77;5.93;;;;;;;25.49;48.55;91602.66;5017537;28;20026;-84
2021/08/13 11:31:13;;;;;;;13.57;5.70;;;;;;;25.36;50.97;91595.59;5000386;28;20029;-84
2021/08/13 11:33:51;;;;;;;15.73;6.00;;;;;;;25.37;49.50;91599.78;5032432;28;20084;-82
2021/08/13 11:36:58;;;;;;;18.88;6.35;;;;;;;25.12;50.53;91600.88;5001172;28;20034;-84
2021/08/13 11:39:43;;;;;;;14.77;6.00;;;;;;;24.96;51.37;91601.44;5016947;28;20481;-84
2021/08/13 11:42:20;;;;;;;20.73;6.63;;;;;;;25.30;52.58;91605.22;5033125;28;20429;-85
2021/08/13 11:44:53;;;;;;;19.05;6.68;;;;;;;25.56;52.42;91609.03;5001383;28;20482;-85
2021/08/13 11:47:34;;;;;;;13.20;6.20;;;;;;;25.51;51.10;91608.34;5016433;28;20508;-84
2021/08/13 11:50:11;;;;;;;14.25;6.35;;;;;;;25.55;49.14;91604.84;5016870;28;20033;-84
2021/08/13 11:52:58;;;;;;;14.77;6.13;;;;;;;25.41;51.91;91603.16;5016988;28;20025;-84
2021/08/13 11:55:37;;;;;;;18.15;6.35;;;;;;;25.42;51.57;91599.31;5017543;28;20025;-84
2021/08/13 11:58:29;;;;;;;19.40;6.47;;;;;;;25.53;50.98;91607.94;5033403;28;20032;-84
2021/08/13 12:01:12;;;;;;;15.68;6.60;;;;;;;25.60;51.12;91599.06;5033946;28;20025;-84
2021/08/13 12:03:50;;;;;;;11.07;5.88;;;;;;;25.81;49.96;91598.75;5002687;28;20485;-85
2021/08/13 12:06:28;;;;;;;13.98;6.15;;;;;;;25.92;50.53;91595.91;5018958;28;20170;-86
2021/08/13 12:09:06;;;;;;;12.60;6.65;;;;;;;25.78;49.73;91596.88;5003698;28;20025;-85
2021/08/13 12:11:44;;;;;;;13.68;6.90;;;;;;;25.82;50.19;91591.50;5022102;28;20026;-86
2021/08/13 12:14:28;;;;;;;14.98;7.18;;;;;;;25.78;49.78;91596.13;5020535;28;20083;-84
2021/08/13 12:17:09;;;;;;;;;;;;;;;25.75;50.27;91600.34;5037532;28;20025;-84
2021/08/13 12:19:38;;;;;;;12.13;6.50;;;;;;;25.59;49.83;91600.97;5053750;28;19935;-85
2021/08/13 12:22:16;;;;;;;17.30;6.50;;;;;;;25.77;50.98;91595.38;5005310;28;20033;-85
2021/08/13 12:24:54;;;;;;;13.93;6.65;;;;;;;25.71;48.31;91594.31;5037936;28;20059;-84